sensor_id;sensor_type;location;lat;lon;timestamp;P1;durP1;ratioP1;P2;durP2;ratioP2
9473;SDS011;8865;47.636;7.692;2024-03-02T00:00:35;6.47;;;3.90;;
9473;SDS011;8865;47.636;7.692;2024-03-02T00:03:01;5.27;;;4.70;;
9473;SDS011;8865;47.636;7.692;2024-03-02T00:05:27;6.30;;;4.80;;
9473;SDS011;8865;47.636;7.692;2024-03-02T00:07:59;7.30;;;4.50;;
9473;SDS011;8865;47.636;7.692;2024-03-02T00:10:26;5.00;;;4.13;;
9473;SDS011;8865;47.636;7.692;2024-03-02T00:12:57;5.67;;;4.37;;
9473;SDS011;8865;47.636;7.692;2024-03-02T00:17:56;6.23;;;4.57;;
9473;SDS011;8865;47.636;7.692;2024-03-02T00:20:22;6.37;;;4.70;;
9473;SDS011;8865;47.636;7.692;2024-03-02T00:22:49;5.97;;;4.60;;
9473;SDS011;8865;47.636;7.692;2024-03-02T00:25:16;5.10;;;4.50;;
9473;SDS011;8865;47.636;7.692;2024-03-02T00:27:42;4.93;;;4.37;;
9473;SDS011;8865;47.636;7.692;2024-03-02T00:30:38;5.17;;;4.57;;
9473;SDS011;8865;47.636;7.692;2024-03-02T00:33:23;4.87;;;4.07;;
9473;SDS011;8865;47.636;7.692;2024-03-02T00:35:53;5.60;;;4.50;;
9473;SDS011;8865;47.636;7.692;2024-03-02T00:38:20;6.57;;;4.77;;
9473;SDS011;8865;47.636;7.692;2024-03-02T00:40:46;6.83;;;5.30;;
9473;SDS011;8865;47.636;7.692;2024-03-02T00:46:04;5.57;;;4.63;;
9473;SDS011;8865;47.636;7.692;2024-03-02T00:48:30;6.47;;;4.80;;
9473;SDS011;8865;47.636;7.692;2024-03-02T00:50:57;6.40;;;4.97;;
9473;SDS011;8865;47.636;7.692;2024-03-02T00:53:24;5.00;;;4.50;;
9473;SDS011;8865;47.636;7.692;2024-03-02T00:55:52;5.20;;;4.30;;
9473;SDS011;8865;47.636;7.692;2024-03-02T00:58:18;4.47;;;4.03;;
9473;SDS011;8865;47.636;7.692;2024-03-02T01:00:44;5.10;;;4.07;;
9473;SDS011;8865;47.636;7.692;2024-03-02T01:03:10;5.63;;;4.30;;
9473;SDS011;8865;47.636;7.692;2024-03-02T01:05:36;5.27;;;4.40;;
9473;SDS011;8865;47.636;7.692;2024-03-02T01:08:08;5.53;;;4.13;;
9473;SDS011;8865;47.636;7.692;2024-03-02T01:10:34;5.53;;;4.20;;
9473;SDS011;8865;47.636;7.692;2024-03-02T01:13:00;5.57;;;4.23;;
9473;SDS011;8865;47.636;7.692;2024-03-02T01:15:26;4.67;;;4.23;;
9473;SDS011;8865;47.636;7.692;2024-03-02T01:17:52;6.03;;;4.10;;
9473;SDS011;8865;47.636;7.692;2024-03-02T01:20:18;4.50;;;3.73;;
9473;SDS011;8865;47.636;7.692;2024-03-02T01:22:44;5.40;;;4.20;;
9473;SDS011;8865;47.636;7.692;2024-03-02T01:25:10;5.10;;;4.60;;
9473;SDS011;8865;47.636;7.692;2024-03-02T01:27:36;5.67;;;4.03;;
9473;SDS011;8865;47.636;7.692;2024-03-02T01:30:02;6.10;;;4.53;;
9473;SDS011;8865;47.636;7.692;2024-03-02T01:32:29;4.40;;;3.87;;
9473;SDS011;8865;47.636;7.692;2024-03-02T01:34:55;5.50;;;4.50;;
9473;SDS011;8865;47.636;7.692;2024-03-02T01:37:21;4.93;;;4.00;;
9473;SDS011;8865;47.636;7.692;2024-03-02T01:39:47;4.57;;;4.13;;
9473;SDS011;8865;47.636;7.692;2024-03-02T01:42:14;5.30;;;4.50;;
9473;SDS011;8865;47.636;7.692;2024-03-02T01:44:40;4.50;;;3.80;;
9473;SDS011;8865;47.636;7.692;2024-03-02T01:47:06;5.87;;;4.43;;
9473;SDS011;8865;47.636;7.692;2024-03-02T01:49:32;5.37;;;4.50;;
9473;SDS011;8865;47.636;7.692;2024-03-02T01:51:59;6.97;;;4.27;;
9473;SDS011;8865;47.636;7.692;2024-03-02T01:54:25;5.37;;;4.83;;
9473;SDS011;8865;47.636;7.692;2024-03-02T01:56:51;5.23;;;4.50;;
9473;SDS011;8865;47.636;7.692;2024-03-02T01:59:17;5.20;;;4.37;;
9473;SDS011;8865;47.636;7.692;2024-03-02T02:01:44;5.07;;;4.57;;
9473;SDS011;8865;47.636;7.692;2024-03-02T02:04:10;5.30;;;4.23;;
9473;SDS011;8865;47.636;7.692;2024-03-02T02:06:36;5.07;;;4.23;;
9473;SDS011;8865;47.636;7.692;2024-03-02T02:09:02;6.00;;;4.50;;
9473;SDS011;8865;47.636;7.692;2024-03-02T02:11:28;6.30;;;4.67;;
9473;SDS011;8865;47.636;7.692;2024-03-02T02:13:54;5.93;;;4.47;;
9473;SDS011;8865;47.636;7.692;2024-03-02T02:16:21;7.10;;;4.43;;
9473;SDS011;8865;47.636;7.692;2024-03-02T02:18:47;5.43;;;4.23;;
9473;SDS011;8865;47.636;7.692;2024-03-02T02:21:13;5.10;;;4.20;;
9473;SDS011;8865;47.636;7.692;2024-03-02T02:23:39;5.20;;;4.40;;
9473;SDS011;8865;47.636;7.692;2024-03-02T02:26:05;5.30;;;4.40;;
9473;SDS011;8865;47.636;7.692;2024-03-02T02:28:31;4.90;;;4.40;;
9473;SDS011;8865;47.636;7.692;2024-03-02T02:30:58;5.50;;;4.47;;
9473;SDS011;8865;47.636;7.692;2024-03-02T02:33:25;6.63;;;4.47;;
9473;SDS011;8865;47.636;7.692;2024-03-02T02:35:51;6.00;;;4.63;;
9473;SDS011;8865;47.636;7.692;2024-03-02T02:38:17;5.13;;;4.27;;
9473;SDS011;8865;47.636;7.692;2024-03-02T02:40:45;6.57;;;4.50;;
9473;SDS011;8865;47.636;7.692;2024-03-02T02:43:11;5.83;;;4.83;;
9473;SDS011;8865;47.636;7.692;2024-03-02T02:45:37;5.90;;;4.80;;
9473;SDS011;8865;47.636;7.692;2024-03-02T02:48:03;6.53;;;4.77;;
9473;SDS011;8865;47.636;7.692;2024-03-02T02:50:30;5.23;;;4.20;;
9473;SDS011;8865;47.636;7.692;2024-03-02T02:52:56;5.37;;;4.37;;
9473;SDS011;8865;47.636;7.692;2024-03-02T02:55:22;7.17;;;5.43;;
9473;SDS011;8865;47.636;7.692;2024-03-02T02:57:49;8.30;;;5.37;;
9473;SDS011;8865;47.636;7.692;2024-03-02T03:00:15;6.90;;;5.40;;
9473;SDS011;8865;47.636;7.692;2024-03-02T03:02:43;8.83;;;7.00;;
9473;SDS011;8865;47.636;7.692;2024-03-02T03:05:11;9.27;;;6.47;;
9473;SDS011;8865;47.636;7.692;2024-03-02T03:07:40;6.93;;;5.87;;
9473;SDS011;8865;47.636;7.692;2024-03-02T03:10:06;7.40;;;5.20;;
9473;SDS011;8865;47.636;7.692;2024-03-02T03:12:33;6.77;;;5.13;;
9473;SDS011;8865;47.636;7.692;2024-03-02T03:15:00;6.17;;;5.20;;
9473;SDS011;8865;47.636;7.692;2024-03-02T03:17:27;6.23;;;5.03;;
9473;SDS011;8865;47.636;7.692;2024-03-02T03:19:53;5.37;;;4.53;;
9473;SDS011;8865;47.636;7.692;2024-03-02T03:22:19;5.13;;;4.23;;
9473;SDS011;8865;47.636;7.692;2024-03-02T03:24:46;6.10;;;4.63;;
9473;SDS011;8865;47.636;7.692;2024-03-02T03:27:12;6.10;;;4.50;;
9473;SDS011;8865;47.636;7.692;2024-03-02T03:29:38;5.63;;;4.90;;
9473;SDS011;8865;47.636;7.692;2024-03-02T03:32:04;6.17;;;4.90;;
9473;SDS011;8865;47.636;7.692;2024-03-02T03:34:32;8.23;;;4.87;;
9473;SDS011;8865;47.636;7.692;2024-03-02T03:36:59;7.17;;;4.87;;
9473;SDS011;8865;47.636;7.692;2024-03-02T03:39:25;7.43;;;5.43;;
9473;SDS011;8865;47.636;7.692;2024-03-02T03:41:51;6.17;;;5.13;;
9473;SDS011;8865;47.636;7.692;2024-03-02T03:44:17;7.27;;;5.17;;
9473;SDS011;8865;47.636;7.692;2024-03-02T03:46:43;5.63;;;4.53;;
9473;SDS011;8865;47.636;7.692;2024-03-02T03:49:09;6.57;;;4.77;;
9473;SDS011;8865;47.636;7.692;2024-03-02T03:51:35;5.17;;;4.13;;
9473;SDS011;8865;47.636;7.692;2024-03-02T03:54:01;6.43;;;5.10;;
9473;SDS011;8865;47.636;7.692;2024-03-02T03:56:27;4.90;;;4.40;;
9473;SDS011;8865;47.636;7.692;2024-03-02T03:58:53;5.43;;;4.40;;
9473;SDS011;8865;47.636;7.692;2024-03-02T04:01:19;5.77;;;4.80;;
9473;SDS011;8865;47.636;7.692;2024-03-02T04:03:48;5.97;;;4.57;;
9473;SDS011;8865;47.636;7.692;2024-03-02T04:06:14;7.10;;;5.00;;
9473;SDS011;8865;47.636;7.692;2024-03-02T04:08:42;7.80;;;4.80;;
9473;SDS011;8865;47.636;7.692;2024-03-02T04:11:08;6.17;;;4.70;;
9473;SDS011;8865;47.636;7.692;2024-03-02T04:13:34;6.63;;;5.23;;
9473;SDS011;8865;47.636;7.692;2024-03-02T04:16:00;6.10;;;4.60;;
9473;SDS011;8865;47.636;7.692;2024-03-02T04:18:26;7.03;;;5.10;;
9473;SDS011;8865;47.636;7.692;2024-03-02T04:20:52;6.47;;;5.23;;
9473;SDS011;8865;47.636;7.692;2024-03-02T04:23:18;6.60;;;5.23;;
9473;SDS011;8865;47.636;7.692;2024-03-02T04:25:45;6.60;;;5.27;;
9473;SDS011;8865;47.636;7.692;2024-03-02T04:28:11;5.33;;;4.80;;
9473;SDS011;8865;47.636;7.692;2024-03-02T04:30:38;6.00;;;4.67;;
9473;SDS011;8865;47.636;7.692;2024-03-02T04:36:01;5.60;;;4.80;;
9473;SDS011;8865;47.636;7.692;2024-03-02T04:38:27;5.23;;;4.50;;
9473;SDS011;8865;47.636;7.692;2024-03-02T04:40:54;5.50;;;4.43;;
9473;SDS011;8865;47.636;7.692;2024-03-02T04:43:20;6.60;;;4.87;;
9473;SDS011;8865;47.636;7.692;2024-03-02T04:45:46;5.47;;;4.50;;
9473;SDS011;8865;47.636;7.692;2024-03-02T04:48:12;5.37;;;4.30;;
9473;SDS011;8865;47.636;7.692;2024-03-02T04:50:39;7.77;;;4.43;;
9473;SDS011;8865;47.636;7.692;2024-03-02T04:53:06;5.83;;;4.40;;
9473;SDS011;8865;47.636;7.692;2024-03-02T04:55:32;5.90;;;4.37;;
9473;SDS011;8865;47.636;7.692;2024-03-02T04:58:04;6.73;;;4.60;;
9473;SDS011;8865;47.636;7.692;2024-03-02T05:00:30;5.20;;;4.07;;
9473;SDS011;8865;47.636;7.692;2024-03-02T05:02:57;5.13;;;4.63;;
9473;SDS011;8865;47.636;7.692;2024-03-02T05:05:23;5.17;;;4.57;;
9473;SDS011;8865;47.636;7.692;2024-03-02T05:07:48;5.23;;;4.63;;
9473;SDS011;8865;47.636;7.692;2024-03-02T05:10:15;8.50;;;4.80;;
9473;SDS011;8865;47.636;7.692;2024-03-02T05:12:41;6.03;;;4.37;;
9473;SDS011;8865;47.636;7.692;2024-03-02T05:15:10;5.80;;;4.30;;
9473;SDS011;8865;47.636;7.692;2024-03-02T05:17:38;5.93;;;4.60;;
9473;SDS011;8865;47.636;7.692;2024-03-02T05:20:11;5.67;;;4.37;;
9473;SDS011;8865;47.636;7.692;2024-03-02T05:22:37;4.57;;;4.07;;
9473;SDS011;8865;47.636;7.692;2024-03-02T05:25:04;4.73;;;4.03;;
9473;SDS011;8865;47.636;7.692;2024-03-02T05:27:30;5.13;;;4.30;;
9473;SDS011;8865;47.636;7.692;2024-03-02T05:29:58;4.57;;;3.90;;
9473;SDS011;8865;47.636;7.692;2024-03-02T05:32:25;4.80;;;3.90;;
9473;SDS011;8865;47.636;7.692;2024-03-02T05:34:51;4.83;;;3.83;;
9473;SDS011;8865;47.636;7.692;2024-03-02T05:37:17;4.93;;;4.43;;
9473;SDS011;8865;47.636;7.692;2024-03-02T05:39:43;5.13;;;4.60;;
9473;SDS011;8865;47.636;7.692;2024-03-02T05:42:09;5.83;;;4.37;;
9473;SDS011;8865;47.636;7.692;2024-03-02T05:44:36;5.30;;;4.77;;
9473;SDS011;8865;47.636;7.692;2024-03-02T05:47:02;5.10;;;4.20;;
9473;SDS011;8865;47.636;7.692;2024-03-02T05:49:29;5.33;;;4.70;;
9473;SDS011;8865;47.636;7.692;2024-03-02T05:51:55;5.57;;;4.77;;
9473;SDS011;8865;47.636;7.692;2024-03-02T05:54:21;5.57;;;4.77;;
9473;SDS011;8865;47.636;7.692;2024-03-02T05:56:48;4.97;;;4.23;;
9473;SDS011;8865;47.636;7.692;2024-03-02T05:59:14;5.40;;;4.90;;
9473;SDS011;8865;47.636;7.692;2024-03-02T06:01:44;8.13;;;5.00;;
9473;SDS011;8865;47.636;7.692;2024-03-02T06:04:17;5.77;;;4.63;;
9473;SDS011;8865;47.636;7.692;2024-03-02T06:06:43;5.03;;;4.53;;
9473;SDS011;8865;47.636;7.692;2024-03-02T06:09:10;5.20;;;4.43;;
9473;SDS011;8865;47.636;7.692;2024-03-02T06:11:38;4.97;;;4.30;;
9473;SDS011;8865;47.636;7.692;2024-03-02T06:14:06;6.17;;;4.60;;
9473;SDS011;8865;47.636;7.692;2024-03-02T06:16:33;4.83;;;4.27;;
9473;SDS011;8865;47.636;7.692;2024-03-02T06:18:59;4.47;;;3.77;;
9473;SDS011;8865;47.636;7.692;2024-03-02T06:21:26;6.20;;;3.80;;
9473;SDS011;8865;47.636;7.692;2024-03-02T06:23:53;4.27;;;3.67;;
9473;SDS011;8865;47.636;7.692;2024-03-02T06:26:19;5.00;;;3.83;;
9473;SDS011;8865;47.636;7.692;2024-03-02T06:28:46;5.10;;;3.80;;
9473;SDS011;8865;47.636;7.692;2024-03-02T06:31:12;5.63;;;3.90;;
9473;SDS011;8865;47.636;7.692;2024-03-02T06:33:38;6.20;;;4.00;;
9473;SDS011;8865;47.636;7.692;2024-03-02T06:36:04;4.70;;;3.80;;
9473;SDS011;8865;47.636;7.692;2024-03-02T06:38:34;4.17;;;3.77;;
9473;SDS011;8865;47.636;7.692;2024-03-02T06:41:00;4.57;;;3.83;;
9473;SDS011;8865;47.636;7.692;2024-03-02T06:43:26;4.90;;;4.10;;
9473;SDS011;8865;47.636;7.692;2024-03-02T06:45:52;6.00;;;3.67;;
9473;SDS011;8865;47.636;7.692;2024-03-02T06:48:18;4.70;;;4.20;;
9473;SDS011;8865;47.636;7.692;2024-03-02T06:50:49;5.43;;;3.67;;
9473;SDS011;8865;47.636;7.692;2024-03-02T06:53:15;6.23;;;3.80;;
9473;SDS011;8865;47.636;7.692;2024-03-02T06:55:45;7.00;;;4.63;;
9473;SDS011;8865;47.636;7.692;2024-03-02T06:58:12;5.27;;;4.27;;
9473;SDS011;8865;47.636;7.692;2024-03-02T07:00:41;4.47;;;3.63;;
9473;SDS011;8865;47.636;7.692;2024-03-02T07:03:07;4.27;;;3.87;;
9473;SDS011;8865;47.636;7.692;2024-03-02T07:05:34;4.00;;;3.60;;
9473;SDS011;8865;47.636;7.692;2024-03-02T07:08:00;3.97;;;3.57;;
9473;SDS011;8865;47.636;7.692;2024-03-02T07:10:27;4.17;;;3.73;;
9473;SDS011;8865;47.636;7.692;2024-03-02T07:12:53;3.67;;;3.37;;
9473;SDS011;8865;47.636;7.692;2024-03-02T07:15:19;3.53;;;3.10;;
9473;SDS011;8865;47.636;7.692;2024-03-02T07:18:08;3.70;;;3.30;;
9473;SDS011;8865;47.636;7.692;2024-03-02T07:20:34;5.60;;;3.47;;
9473;SDS011;8865;47.636;7.692;2024-03-02T07:23:00;3.90;;;3.50;;
9473;SDS011;8865;47.636;7.692;2024-03-02T07:25:26;4.40;;;3.77;;
9473;SDS011;8865;47.636;7.692;2024-03-02T07:27:53;3.60;;;3.30;;
9473;SDS011;8865;47.636;7.692;2024-03-02T07:30:19;4.37;;;3.87;;
9473;SDS011;8865;47.636;7.692;2024-03-02T07:32:49;4.27;;;3.80;;
9473;SDS011;8865;47.636;7.692;2024-03-02T07:35:16;4.23;;;3.83;;
9473;SDS011;8865;47.636;7.692;2024-03-02T07:37:44;5.07;;;4.47;;
9473;SDS011;8865;47.636;7.692;2024-03-02T07:40:11;4.77;;;4.33;;
9473;SDS011;8865;47.636;7.692;2024-03-02T07:42:38;5.10;;;4.60;;
9473;SDS011;8865;47.636;7.692;2024-03-02T07:45:05;4.37;;;3.97;;
9473;SDS011;8865;47.636;7.692;2024-03-02T07:47:35;5.33;;;4.40;;
9473;SDS011;8865;47.636;7.692;2024-03-02T07:50:01;4.47;;;4.00;;
9473;SDS011;8865;47.636;7.692;2024-03-02T07:52:27;6.00;;;4.23;;
9473;SDS011;8865;47.636;7.692;2024-03-02T07:54:53;3.83;;;3.47;;
9473;SDS011;8865;47.636;7.692;2024-03-02T07:57:20;4.20;;;3.80;;
9473;SDS011;8865;47.636;7.692;2024-03-02T07:59:46;5.47;;;3.90;;
9473;SDS011;8865;47.636;7.692;2024-03-02T08:02:13;5.80;;;4.30;;
9473;SDS011;8865;47.636;7.692;2024-03-02T08:04:39;5.20;;;4.20;;
9473;SDS011;8865;47.636;7.692;2024-03-02T08:07:05;4.33;;;3.90;;
9473;SDS011;8865;47.636;7.692;2024-03-02T08:09:31;5.73;;;5.07;;
9473;SDS011;8865;47.636;7.692;2024-03-02T08:11:58;5.27;;;4.73;;
9473;SDS011;8865;47.636;7.692;2024-03-02T08:14:24;7.30;;;5.67;;
9473;SDS011;8865;47.636;7.692;2024-03-02T08:16:50;7.30;;;6.17;;
9473;SDS011;8865;47.636;7.692;2024-03-02T08:19:16;9.37;;;7.43;;
9473;SDS011;8865;47.636;7.692;2024-03-02T08:21:42;9.47;;;8.17;;
9473;SDS011;8865;47.636;7.692;2024-03-02T08:24:09;9.60;;;8.57;;
9473;SDS011;8865;47.636;7.692;2024-03-02T08:26:35;11.60;;;9.97;;
9473;SDS011;8865;47.636;7.692;2024-03-02T08:29:01;10.60;;;9.50;;
9473;SDS011;8865;47.636;7.692;2024-03-02T08:31:29;9.83;;;8.73;;
9473;SDS011;8865;47.636;7.692;2024-03-02T08:33:55;10.23;;;8.30;;
9473;SDS011;8865;47.636;7.692;2024-03-02T08:36:22;9.07;;;8.00;;
9473;SDS011;8865;47.636;7.692;2024-03-02T08:38:49;9.27;;;7.87;;
9473;SDS011;8865;47.636;7.692;2024-03-02T08:41:16;8.60;;;7.70;;
9473;SDS011;8865;47.636;7.692;2024-03-02T08:43:42;9.60;;;8.60;;
9473;SDS011;8865;47.636;7.692;2024-03-02T08:46:08;9.17;;;8.10;;
9473;SDS011;8865;47.636;7.692;2024-03-02T08:48:34;9.47;;;7.77;;
9473;SDS011;8865;47.636;7.692;2024-03-02T08:51:00;9.30;;;8.00;;
9473;SDS011;8865;47.636;7.692;2024-03-02T08:53:26;8.23;;;7.43;;
9473;SDS011;8865;47.636;7.692;2024-03-02T08:55:53;9.03;;;7.77;;
9473;SDS011;8865;47.636;7.692;2024-03-02T08:58:20;8.60;;;7.63;;
9473;SDS011;8865;47.636;7.692;2024-03-02T09:00:47;10.40;;;8.43;;
9473;SDS011;8865;47.636;7.692;2024-03-02T09:03:13;8.70;;;7.90;;
9473;SDS011;8865;47.636;7.692;2024-03-02T09:05:40;9.43;;;8.43;;
9473;SDS011;8865;47.636;7.692;2024-03-02T09:08:06;11.17;;;10.07;;
9473;SDS011;8865;47.636;7.692;2024-03-02T09:10:32;9.10;;;8.20;;
9473;SDS011;8865;47.636;7.692;2024-03-02T09:12:58;10.13;;;9.00;;
9473;SDS011;8865;47.636;7.692;2024-03-02T09:15:25;10.03;;;9.03;;
9473;SDS011;8865;47.636;7.692;2024-03-02T09:17:51;9.37;;;8.37;;
9473;SDS011;8865;47.636;7.692;2024-03-02T09:20:18;10.77;;;8.27;;
9473;SDS011;8865;47.636;7.692;2024-03-02T09:22:45;8.23;;;7.43;;
9473;SDS011;8865;47.636;7.692;2024-03-02T09:25:13;7.10;;;6.50;;
9473;SDS011;8865;47.636;7.692;2024-03-02T09:27:39;7.60;;;6.90;;
9473;SDS011;8865;47.636;7.692;2024-03-02T09:30:09;6.70;;;6.10;;
9473;SDS011;8865;47.636;7.692;2024-03-02T09:32:39;7.53;;;6.73;;
9473;SDS011;8865;47.636;7.692;2024-03-02T09:35:05;7.10;;;6.40;;
9473;SDS011;8865;47.636;7.692;2024-03-02T09:37:31;11.13;;;10.03;;
9473;SDS011;8865;47.636;7.692;2024-03-02T09:39:57;10.23;;;9.07;;
9473;SDS011;8865;47.636;7.692;2024-03-02T09:42:23;6.10;;;5.50;;
9473;SDS011;8865;47.636;7.692;2024-03-02T09:44:49;6.97;;;6.13;;
9473;SDS011;8865;47.636;7.692;2024-03-02T09:47:16;6.57;;;5.90;;
9473;SDS011;8865;47.636;7.692;2024-03-02T09:49:42;6.30;;;5.70;;
9473;SDS011;8865;47.636;7.692;2024-03-02T09:52:08;6.33;;;5.70;;
9473;SDS011;8865;47.636;7.692;2024-03-02T09:54:34;6.00;;;5.50;;
9473;SDS011;8865;47.636;7.692;2024-03-02T09:57:00;6.53;;;5.83;;
9473;SDS011;8865;47.636;7.692;2024-03-02T09:59:27;7.53;;;6.37;;
9473;SDS011;8865;47.636;7.692;2024-03-02T10:04:27;6.90;;;6.20;;
9473;SDS011;8865;47.636;7.692;2024-03-02T10:07:11;6.60;;;5.90;;
9473;SDS011;8865;47.636;7.692;2024-03-02T10:09:44;6.30;;;5.70;;
9473;SDS011;8865;47.636;7.692;2024-03-02T10:12:14;6.70;;;6.00;;
9473;SDS011;8865;47.636;7.692;2024-03-02T10:14:41;5.23;;;4.73;;
9473;SDS011;8865;47.636;7.692;2024-03-02T10:17:11;5.90;;;4.87;;
9473;SDS011;8865;47.636;7.692;2024-03-02T10:19:39;5.23;;;4.60;;
9473;SDS011;8865;47.636;7.692;2024-03-02T10:22:08;4.53;;;4.13;;
9473;SDS011;8865;47.636;7.692;2024-03-02T10:27:09;3.83;;;3.53;;
9473;SDS011;8865;47.636;7.692;2024-03-02T10:29:37;4.65;;;4.22;;
9473;SDS011;8865;47.636;7.692;2024-03-02T10:32:04;4.28;;;3.88;;
9473;SDS011;8865;47.636;7.692;2024-03-02T10:34:32;4.53;;;4.03;;
9473;SDS011;8865;47.636;7.692;2024-03-02T10:36:58;4.72;;;4.28;;
9473;SDS011;8865;47.636;7.692;2024-03-02T10:39:25;4.75;;;4.35;;
9473;SDS011;8865;47.636;7.692;2024-03-02T10:41:51;4.10;;;3.63;;
9473;SDS011;8865;47.636;7.692;2024-03-02T10:44:19;3.85;;;3.55;;
9473;SDS011;8865;47.636;7.692;2024-03-02T10:46:47;4.25;;;3.42;;
9473;SDS011;8865;47.636;7.692;2024-03-02T10:49:16;3.65;;;3.35;;
9473;SDS011;8865;47.636;7.692;2024-03-02T10:51:42;3.95;;;3.60;;
9473;SDS011;8865;47.636;7.692;2024-03-02T10:54:08;6.28;;;5.78;;
9473;SDS011;8865;47.636;7.692;2024-03-02T10:56:43;3.00;;;2.80;;
9473;SDS011;8865;47.636;7.692;2024-03-02T11:01:53;3.33;;;3.03;;
9473;SDS011;8865;47.636;7.692;2024-03-02T11:04:24;3.03;;;2.80;;
9473;SDS011;8865;47.636;7.692;2024-03-02T11:06:52;2.80;;;2.60;;
9473;SDS011;8865;47.636;7.692;2024-03-02T11:09:25;2.90;;;2.65;;
9473;SDS011;8865;47.636;7.692;2024-03-02T11:12:15;2.70;;;2.50;;
9473;SDS011;8865;47.636;7.692;2024-03-02T11:14:42;2.75;;;2.47;;
9473;SDS011;8865;47.636;7.692;2024-03-02T11:17:11;3.38;;;3.08;;
9473;SDS011;8865;47.636;7.692;2024-03-02T11:19:41;3.78;;;2.83;;
9473;SDS011;8865;47.636;7.692;2024-03-02T11:22:08;3.45;;;2.42;;
9473;SDS011;8865;47.636;7.692;2024-03-02T11:24:35;4.05;;;3.58;;
9473;SDS011;8865;47.636;7.692;2024-03-02T11:27:03;3.95;;;3.65;;
9473;SDS011;8865;47.636;7.692;2024-03-02T11:32:14;3.88;;;3.50;;
9473;SDS011;8865;47.636;7.692;2024-03-02T11:34:47;3.55;;;3.20;;
9473;SDS011;8865;47.636;7.692;2024-03-02T11:37:15;2.42;;;2.22;;
9473;SDS011;8865;47.636;7.692;2024-03-02T11:39:46;3.08;;;2.38;;
9473;SDS011;8865;47.636;7.692;2024-03-02T11:42:15;1.73;;;1.63;;
9473;SDS011;8865;47.636;7.692;2024-03-02T11:44:42;2.08;;;1.70;;
9473;SDS011;8865;47.636;7.692;2024-03-02T11:47:11;1.42;;;1.30;;
9473;SDS011;8865;47.636;7.692;2024-03-02T11:52:14;1.70;;;1.60;;
9473;SDS011;8865;47.636;7.692;2024-03-02T11:54:46;1.77;;;1.67;;
9473;SDS011;8865;47.636;7.692;2024-03-02T11:57:13;2.05;;;1.65;;
9473;SDS011;8865;47.636;7.692;2024-03-02T11:59:41;3.05;;;2.10;;
9473;SDS011;8865;47.636;7.692;2024-03-02T12:02:12;2.75;;;2.08;;
9473;SDS011;8865;47.636;7.692;2024-03-02T12:04:41;2.17;;;1.98;;
9473;SDS011;8865;47.636;7.692;2024-03-02T12:07:08;2.10;;;1.90;;
9473;SDS011;8865;47.636;7.692;2024-03-02T12:09:35;1.95;;;1.85;;
9473;SDS011;8865;47.636;7.692;2024-03-02T12:12:04;2.40;;;1.70;;
9473;SDS011;8865;47.636;7.692;2024-03-02T12:14:31;2.40;;;2.20;;
9473;SDS011;8865;47.636;7.692;2024-03-02T12:16:58;3.08;;;2.80;;
9473;SDS011;8865;47.636;7.692;2024-03-02T12:19:25;2.60;;;2.33;;
9473;SDS011;8865;47.636;7.692;2024-03-02T12:22:01;3.15;;;2.38;;
9473;SDS011;8865;47.636;7.692;2024-03-02T12:24:27;2.72;;;2.53;;
9473;SDS011;8865;47.636;7.692;2024-03-02T12:26:54;2.60;;;2.40;;
9473;SDS011;8865;47.636;7.692;2024-03-02T12:29:22;3.53;;;2.50;;
9473;SDS011;8865;47.636;7.692;2024-03-02T12:31:52;2.23;;;1.97;;
9473;SDS011;8865;47.636;7.692;2024-03-02T12:34:19;2.07;;;1.80;;
9473;SDS011;8865;47.636;7.692;2024-03-02T12:36:45;1.70;;;1.60;;
9473;SDS011;8865;47.636;7.692;2024-03-02T12:39:16;1.97;;;1.87;;
9473;SDS011;8865;47.636;7.692;2024-03-02T12:41:42;2.93;;;1.90;;
9473;SDS011;8865;47.636;7.692;2024-03-02T12:44:09;1.80;;;1.70;;
9473;SDS011;8865;47.636;7.692;2024-03-02T12:46:35;2.40;;;2.20;;
9473;SDS011;8865;47.636;7.692;2024-03-02T12:49:08;1.70;;;1.60;;
9473;SDS011;8865;47.636;7.692;2024-03-02T12:51:42;2.00;;;1.80;;
9473;SDS011;8865;47.636;7.692;2024-03-02T12:54:09;2.20;;;2.00;;
9473;SDS011;8865;47.636;7.692;2024-03-02T12:56:36;2.07;;;1.80;;
9473;SDS011;8865;47.636;7.692;2024-03-02T12:59:03;2.00;;;1.90;;
9473;SDS011;8865;47.636;7.692;2024-03-02T13:01:30;2.83;;;2.27;;
9473;SDS011;8865;47.636;7.692;2024-03-02T13:03:57;2.70;;;2.40;;
9473;SDS011;8865;47.636;7.692;2024-03-02T13:06:24;3.07;;;2.40;;
9473;SDS011;8865;47.636;7.692;2024-03-02T13:08:54;2.77;;;2.50;;
9473;SDS011;8865;47.636;7.692;2024-03-02T13:11:22;3.70;;;2.50;;
9473;SDS011;8865;47.636;7.692;2024-03-02T13:13:49;3.37;;;2.67;;
9473;SDS011;8865;47.636;7.692;2024-03-02T13:16:16;3.50;;;2.73;;
9473;SDS011;8865;47.636;7.692;2024-03-02T13:18:44;2.90;;;2.60;;
9473;SDS011;8865;47.636;7.692;2024-03-02T13:21:10;3.07;;;2.57;;
9473;SDS011;8865;47.636;7.692;2024-03-02T13:23:36;3.00;;;2.40;;
9473;SDS011;8865;47.636;7.692;2024-03-02T13:26:02;3.20;;;2.60;;
9473;SDS011;8865;47.636;7.692;2024-03-02T13:28:29;3.03;;;2.60;;
9473;SDS011;8865;47.636;7.692;2024-03-02T13:30:55;2.63;;;2.43;;
9473;SDS011;8865;47.636;7.692;2024-03-02T13:33:21;3.27;;;2.83;;
9473;SDS011;8865;47.636;7.692;2024-03-02T13:35:49;3.50;;;2.97;;
9473;SDS011;8865;47.636;7.692;2024-03-02T13:38:19;3.10;;;2.90;;
9473;SDS011;8865;47.636;7.692;2024-03-02T13:40:46;4.00;;;3.63;;
9473;SDS011;8865;47.636;7.692;2024-03-02T13:43:16;6.67;;;5.10;;
9473;SDS011;8865;47.636;7.692;2024-03-02T13:45:44;4.80;;;4.30;;
9473;SDS011;8865;47.636;7.692;2024-03-02T13:48:10;3.60;;;3.30;;
9473;SDS011;8865;47.636;7.692;2024-03-02T13:50:36;4.23;;;3.47;;
9473;SDS011;8865;47.636;7.692;2024-03-02T13:53:02;3.30;;;3.00;;
9473;SDS011;8865;47.636;7.692;2024-03-02T13:55:28;3.40;;;3.00;;
9473;SDS011;8865;47.636;7.692;2024-03-02T13:57:54;3.63;;;3.00;;
9473;SDS011;8865;47.636;7.692;2024-03-02T14:00:20;3.77;;;3.40;;
9473;SDS011;8865;47.636;7.692;2024-03-02T14:02:47;4.07;;;3.20;;
9473;SDS011;8865;47.636;7.692;2024-03-02T14:05:15;3.73;;;3.27;;
9473;SDS011;8865;47.636;7.692;2024-03-02T14:07:41;3.30;;;3.00;;
9473;SDS011;8865;47.636;7.692;2024-03-02T14:10:08;3.00;;;2.70;;
9473;SDS011;8865;47.636;7.692;2024-03-02T14:12:34;2.63;;;2.43;;
9473;SDS011;8865;47.636;7.692;2024-03-02T14:15:02;4.10;;;2.53;;
9473;SDS011;8865;47.636;7.692;2024-03-02T14:17:28;3.10;;;2.63;;
9473;SDS011;8865;47.636;7.692;2024-03-02T14:19:57;4.00;;;2.10;;
9473;SDS011;8865;47.636;7.692;2024-03-02T14:22:25;3.07;;;2.30;;
9473;SDS011;8865;47.636;7.692;2024-03-02T14:24:51;1.90;;;1.80;;
9473;SDS011;8865;47.636;7.692;2024-03-02T14:27:17;2.47;;;2.10;;
9473;SDS011;8865;47.636;7.692;2024-03-02T14:29:43;2.50;;;2.10;;
9473;SDS011;8865;47.636;7.692;2024-03-02T14:32:10;2.40;;;2.00;;
9473;SDS011;8865;47.636;7.692;2024-03-02T14:34:36;2.20;;;2.00;;
9473;SDS011;8865;47.636;7.692;2024-03-02T14:37:02;2.20;;;2.00;;
9473;SDS011;8865;47.636;7.692;2024-03-02T14:39:28;2.87;;;2.10;;
9473;SDS011;8865;47.636;7.692;2024-03-02T14:41:55;1.70;;;1.60;;
9473;SDS011;8865;47.636;7.692;2024-03-02T14:44:21;1.70;;;1.53;;
9473;SDS011;8865;47.636;7.692;2024-03-02T14:46:47;2.03;;;1.73;;
9473;SDS011;8865;47.636;7.692;2024-03-02T14:49:14;2.10;;;1.90;;
9473;SDS011;8865;47.636;7.692;2024-03-02T14:51:40;2.53;;;1.90;;
9473;SDS011;8865;47.636;7.692;2024-03-02T14:54:06;2.77;;;1.87;;
9473;SDS011;8865;47.636;7.692;2024-03-02T14:56:32;1.80;;;1.70;;
9473;SDS011;8865;47.636;7.692;2024-03-02T14:58:58;2.40;;;1.70;;
9473;SDS011;8865;47.636;7.692;2024-03-02T15:01:24;2.10;;;1.90;;
9473;SDS011;8865;47.636;7.692;2024-03-02T15:03:51;2.43;;;1.57;;
9473;SDS011;8865;47.636;7.692;2024-03-02T15:06:17;2.20;;;2.00;;
9473;SDS011;8865;47.636;7.692;2024-03-02T15:08:43;1.90;;;1.80;;
9473;SDS011;8865;47.636;7.692;2024-03-02T15:11:12;2.60;;;2.10;;
9473;SDS011;8865;47.636;7.692;2024-03-02T15:13:38;2.60;;;2.40;;
9473;SDS011;8865;47.636;7.692;2024-03-02T15:16:05;2.60;;;2.00;;
9473;SDS011;8865;47.636;7.692;2024-03-02T15:18:31;2.80;;;2.50;;
9473;SDS011;8865;47.636;7.692;2024-03-02T15:20:57;3.00;;;2.23;;
9473;SDS011;8865;47.636;7.692;2024-03-02T15:23:23;3.17;;;2.30;;
9473;SDS011;8865;47.636;7.692;2024-03-02T15:25:50;2.80;;;2.20;;
9473;SDS011;8865;47.636;7.692;2024-03-02T15:28:16;2.57;;;2.37;;
9473;SDS011;8865;47.636;7.692;2024-03-02T15:30:42;3.17;;;2.10;;
9473;SDS011;8865;47.636;7.692;2024-03-02T15:33:08;2.50;;;2.30;;
9473;SDS011;8865;47.636;7.692;2024-03-02T15:35:34;3.07;;;2.50;;